Time;durP1;ratioP1;P1;durP2;ratioP2;P2;SDS_P1;SDS_P2;PMS_P1;PMS_P2;Temp;Humidity;BMP_temperature;BMP_pressure;BME280_temperature;BME280_humidity;BME280_pressure;Samples;Min_cycle;Max_cycle;Signal;HPM_P1;HPM_P2
2022/01/09 00:00:37;;;;;;;5.10;2.70;;;2.80;99.90;;;;;;5076815;28;20209;-89
2022/01/09 00:03:04;;;;;;;4.90;3.13;;;2.80;99.90;;;;;;5076694;28;20410;-86
2022/01/09 00:05:30;;;;;;;3.80;2.00;;;2.80;99.90;;;;;;5075224;28;20427;-90
2022/01/09 00:08:01;;;;;;;5.90;2.20;;;2.80;99.90;;;;;;5076015;28;20515;-90
2022/01/09 00:10:31;;;;;;;4.03;1.33;;;2.80;99.90;;;;;;5076787;28;20411;-86
2022/01/09 00:12:58;;;;;;;3.33;2.10;;;2.80;99.90;;;;;;5075900;28;20422;-90
2022/01/09 00:15:24;;;;;;;5.63;2.40;;;2.80;99.90;;;;;;5076096;28;20412;-88
2022/01/09 00:17:49;;;;;;;4.43;2.33;;;2.80;99.90;;;;;;5076963;28;20434;-87
2022/01/09 00:20:16;;;;;;;2.47;1.30;;;2.80;99.90;;;;;;5077520;28;20281;-91
2022/01/09 00:22:48;;;;;;;2.70;1.00;;;2.80;99.90;;;;;;5074695;28;20747;-84
2022/01/09 00:25:16;;;;;;;2.20;1.77;;;2.90;99.90;;;;;;5075819;28;20845;-84
2022/01/09 00:27:42;;;;;;;2.13;1.43;;;2.80;99.90;;;;;;5076300;28;20480;-89
2022/01/09 00:30:11;;;;;;;1.87;1.63;;;2.80;99.90;;;;;;5076512;28;20415;-88
2022/01/09 00:32:37;;;;;;;4.77;2.33;;;2.80;99.90;;;;;;5076038;28;20168;-85
2022/01/09 00:35:04;;;;;;;9.13;2.27;;;2.90;99.90;;;;;;5074611;28;20411;-85
2022/01/09 00:37:29;;;;;;;4.07;2.60;;;2.80;99.90;;;;;;5076174;28;20174;-84
2022/01/09 00:39:55;;;;;;;2.83;2.00;;;2.80;99.90;;;;;;5075867;28;20473;-85
2022/01/09 00:42:23;;;;;;;1.60;1.03;;;2.90;99.90;;;;;;5076336;28;20173;-88
2022/01/09 00:44:49;;;;;;;2.80;1.90;;;2.80;99.90;;;;;;5074680;28;20176;-90
2022/01/09 00:47:14;;;;;;;3.03;2.33;;;2.90;99.90;;;;;;5075952;28;20489;-85
2022/01/09 00:49:40;;;;;;;3.97;1.27;;;2.80;99.90;;;;;;5074914;28;20182;-89
2022/01/09 00:52:05;;;;;;;3.63;2.10;;;2.80;99.90;;;;;;5076912;28;20257;-91
2022/01/09 00:54:31;;;;;;;2.70;1.63;;;2.80;99.90;;;;;;5075646;28;20177;-85
2022/01/09 00:56:59;;;;;;;2.50;1.53;;;2.80;99.90;;;;;;5075948;28;20267;-90
2022/01/09 00:59:25;;;;;;;3.47;1.70;;;2.80;99.90;;;;;;5076390;28;20177;-90
2022/01/09 01:01:50;;;;;;;3.30;1.27;;;2.80;99.90;;;;;;5075326;28;20432;-89
2022/01/09 01:04:16;;;;;;;1.93;1.37;;;2.80;99.90;;;;;;5075809;28;20173;-91
2022/01/09 01:06:41;;;;;;;8.23;2.60;;;2.80;99.90;;;;;;5075612;28;20546;-86
2022/01/09 01:09:10;;;;;;;3.53;1.60;;;2.80;99.90;;;;;;5075507;28;20223;-91
2022/01/09 01:11:35;;;;;;;2.63;1.37;;;2.80;99.90;;;;;;5073942;28;20621;-90
2022/01/09 01:14:01;;;;;;;4.00;1.70;;;2.80;99.90;;;;;;5075394;28;20411;-89
2022/01/09 01:16:27;;;;;;;2.87;1.17;;;2.80;99.90;;;;;;5075613;28;20172;-85
2022/01/09 01:18:54;;;;;;;2.53;1.80;;;2.80;99.90;;;;;;5075377;28;20180;-85
2022/01/09 01:21:22;;;;;;;4.20;2.57;;;2.80;99.90;;;;;;5074123;28;20665;-88
2022/01/09 01:23:48;;;;;;;3.07;1.40;;;2.90;99.90;;;;;;5075162;28;20455;-88
2022/01/09 01:26:13;;;;;;;2.20;1.23;;;2.90;99.90;;;;;;5075016;28;20481;-86
2022/01/09 01:28:42;;;;;;;2.20;1.40;;;2.90;99.90;;;;;;5075414;28;20682;-89
2022/01/09 01:31:10;;;;;;;2.67;1.13;;;2.80;99.90;;;;;;5075176;28;20222;-89
2022/01/09 01:33:36;;;;;;;2.93;1.80;;;2.80;99.90;;;;;;5074579;28;20769;-87
2022/01/09 01:36:02;;;;;;;5.73;1.87;;;2.80;99.90;;;;;;5073728;28;20427;-90
2022/01/09 01:38:27;;;;;;;2.70;1.57;;;2.80;99.90;;;;;;5075489;28;20172;-83
2022/01/09 01:40:53;;;;;;;1.90;1.27;;;2.80;99.90;;;;;;5090091;28;20470;-84
2022/01/09 01:43:18;;;;;;;4.23;1.87;;;2.80;99.90;;;;;;5075007;28;20173;-83
2022/01/09 01:45:44;;;;;;;2.20;1.20;;;2.90;99.90;;;;;;5074825;28;20259;-85
2022/01/09 01:48:11;;;;;;;2.47;1.30;;;2.90;99.90;;;;;;5075376;28;20172;-91
2022/01/09 01:50:38;;;;;;;1.63;1.47;;;2.90;99.90;;;;;;5075002;28;20227;-85
2022/01/09 01:53:10;;;;;;;2.17;1.60;;;2.90;99.90;;;;;;5075140;28;20462;-92
2022/01/09 01:55:37;;;;;;;3.97;2.43;;;2.90;99.90;;;;;;5073608;28;20427;-92
2022/01/09 01:58:08;;;;;;;3.10;1.07;;;2.90;99.90;;;;;;5074909;28;20814;-86
2022/01/09 02:00:34;;;;;;;2.10;1.00;;;2.90;99.90;;;;;;5074438;28;20466;-91
2022/01/09 02:03:00;;;;;;;2.73;1.73;;;2.90;99.90;;;;;;5074580;28;20402;-85
2022/01/09 02:05:26;;;;;;;4.03;1.40;;;2.90;99.90;;;;;;5074719;28;20429;-86
2022/01/09 02:07:52;;;;;;;3.50;1.40;;;2.80;99.90;;;;;;5074342;28;20482;-91
2022/01/09 02:10:18;;;;;;;1.87;1.43;;;2.80;99.90;;;;;;5073874;28;20443;-87
2022/01/09 02:12:44;;;;;;;3.63;1.53;;;2.80;99.90;;;;;;5074447;28;20434;-87
2022/01/09 02:15:39;;;;;;;2.90;1.40;;;2.70;99.90;;;;;;5074461;28;20788;-87
2022/01/09 02:18:10;;;;;;;1.77;1.37;;;2.70;99.90;;;;;;5073456;28;20448;-85
2022/01/09 02:20:37;;;;;;;3.33;1.60;;;2.70;99.90;;;;;;5074300;28;20469;-85
2022/01/09 02:23:06;;;;;;;4.20;2.00;;;2.70;99.90;;;;;;5072915;28;20474;-91
2022/01/09 02:25:33;;;;;;;4.60;1.50;;;2.70;99.90;;;;;;5073879;28;20460;-87
2022/01/09 02:27:58;;;;;;;3.70;1.73;;;2.70;99.90;;;;;;5074768;28;20483;-87
2022/01/09 02:30:24;;;;;;;2.20;2.00;;;2.70;99.90;;;;;;5074832;28;20968;-89
2022/01/09 02:32:50;;;;;;;6.97;2.00;;;2.70;99.90;;;;;;5090616;28;20173;-88
2022/01/09 02:35:15;;;;;;;2.13;1.60;;;2.70;99.90;;;;;;5073931;28;20222;-86
2022/01/09 02:37:41;;;;;;;1.80;1.37;;;2.70;99.90;;;;;;5073311;28;20181;-87
2022/01/09 02:40:07;;;;;;;2.00;1.43;;;2.70;99.90;;;;;;5073545;28;21043;-86
2022/01/09 02:42:33;;;;;;;5.53;1.77;;;2.70;99.90;;;;;;5073528;28;20169;-94
2022/01/09 02:45:00;;;;;;;3.33;1.87;;;2.70;99.90;;;;;;5076738;28;20472;-93
2022/01/09 02:47:29;;;;;;;5.43;2.07;;;2.70;99.90;;;;;;5076072;28;20404;-90
2022/01/09 02:49:56;;;;;;;3.93;1.30;;;2.70;99.90;;;;;;5075955;28;20411;-91
2022/01/09 02:52:47;;;;;;;2.10;1.70;;;2.70;99.90;;;;;;5075760;28;20426;-94
2022/01/09 02:55:14;;;;;;;3.63;2.17;;;2.70;99.90;;;;;;5073811;28;20783;-95
2022/01/09 02:57:41;;;;;;;1.13;1.03;;;2.70;99.90;;;;;;5075682;28;20465;-85
2022/01/09 03:00:10;;;;;;;2.37;1.40;;;2.70;99.90;;;;;;5073910;28;20549;-83
2022/01/09 03:02:36;;;;;;;3.63;1.60;;;2.70;99.90;;;;;;5072507;28;20469;-94
2022/01/09 03:05:02;;;;;;;1.90;1.60;;;2.70;99.90;;;;;;5072709;28;20446;-93
2022/01/09 03:07:27;;;;;;;4.07;2.00;;;2.70;99.90;;;;;;5072937;28;20172;-94
2022/01/09 03:09:53;;;;;;;2.53;2.10;;;2.70;99.90;;;;;;5073872;28;20772;-93
2022/01/09 03:12:19;;;;;;;3.07;2.30;;;2.70;99.90;;;;;;5074252;28;20169;-90
2022/01/09 03:14:46;;;;;;;3.50;1.77;;;2.70;99.90;;;;;;5073022;28;20172;-89
2022/01/09 03:17:11;;;;;;;1.53;0.97;;;2.70;99.90;;;;;;5074133;28;20419;-90
2022/01/09 03:19:37;;;;;;;3.10;1.87;;;2.70;99.90;;;;;;5073549;28;20410;-92
2022/01/09 03:22:03;;;;;;;2.67;1.23;;;2.70;99.90;;;;;;5073562;28;20467;-92
2022/01/09 03:24:28;;;;;;;2.33;1.93;;;2.70;99.90;;;;;;5073690;28;20195;-89
2022/01/09 03:26:54;;;;;;;2.20;1.23;;;2.70;99.90;;;;;;5075290;28;20190;-88
2022/01/09 03:29:19;;;;;;;3.10;0.80;;;2.70;99.90;;;;;;5076885;28;20254;-88
2022/01/09 03:31:45;;;;;;;1.83;1.30;;;2.80;99.90;;;;;;5077669;28;20181;-92
2022/01/09 03:34:10;;;;;;;3.40;1.10;;;2.70;99.90;;;;;;5077943;28;20177;-90
2022/01/09 03:36:36;;;;;;;2.80;1.20;;;2.70;99.90;;;;;;5076703;28;20173;-91
2022/01/09 03:39:02;;;;;;;3.27;1.57;;;2.80;99.90;;;;;;5077988;28;20165;-87
2022/01/09 03:41:27;;;;;;;4.07;1.50;;;2.80;99.90;;;;;;5075998;28;20205;-91
2022/01/09 03:43:53;;;;;;;2.03;1.40;;;2.70;99.90;;;;;;5076715;28;20173;-92
2022/01/09 03:46:18;;;;;;;2.33;1.40;;;2.80;99.90;;;;;;5077696;28;20180;-87
2022/01/09 03:48:43;;;;;;;3.90;1.70;;;2.80;99.90;;;;;;5077203;28;20243;-85
2022/01/09 03:51:10;;;;;;;3.27;1.67;;;2.70;99.90;;;;;;5077442;28;20699;-88
2022/01/09 03:53:36;;;;;;;3.87;2.17;;;2.70;99.90;;;;;;5077709;28;20161;-91
2022/01/09 03:56:02;;;;;;;3.77;1.80;;;2.70;99.90;;;;;;5076565;28;20430;-93
2022/01/09 03:58:28;;;;;;;4.13;1.50;;;2.70;99.90;;;;;;5077866;28;20412;-90
2022/01/09 04:00:54;;;;;;;5.93;2.00;;;2.70;99.90;;;;;;5076767;28;20466;-90
2022/01/09 04:03:19;;;;;;;3.43;1.83;;;2.70;99.90;;;;;;5077711;28;20178;-90
2022/01/09 04:05:45;;;;;;;3.67;1.50;;;2.70;99.90;;;;;;5076707;28;20169;-89
2022/01/09 04:08:10;;;;;;;2.60;1.90;;;2.70;99.90;;;;;;5077562;28;20621;-93
2022/01/09 04:10:41;;;;;;;4.17;2.20;;;2.70;99.90;;;;;;5077067;28;20176;-90
2022/01/09 04:13:07;;;;;;;2.67;1.07;;;2.70;99.90;;;;;;5077505;28;20157;-92
2022/01/09 04:15:33;;;;;;;3.23;1.73;;;2.80;99.90;;;;;;5076635;28;20419;-89
2022/01/09 04:18:00;;;;;;;2.73;1.67;;;2.80;99.90;;;;;;5078795;28;20407;-89
2022/01/09 04:20:28;;;;;;;1.80;1.37;;;2.70;99.90;;;;;;5081609;28;20299;-90
2022/01/09 04:22:53;;;;;;;3.57;1.53;;;2.80;99.90;;;;;;5081713;28;20978;-89
2022/01/09 04:25:20;;;;;;;2.80;1.50;;;2.80;99.90;;;;;;5077961;28;20414;-87
2022/01/09 04:27:47;;;;;;;2.60;1.50;;;2.70;99.90;;;;;;5076705;28;20633;-91
2022/01/09 04:30:14;;;;;;;2.90;1.27;;;2.70;99.90;;;;;;5075499;28;20421;-86
2022/01/09 04:32:39;;;;;;;2.30;2.00;;;2.80;99.90;;;;;;5076782;28;20473;-91
2022/01/09 04:35:06;;;;;;;2.00;1.37;;;2.70;99.90;;;;;;5076747;28;20522;-92
2022/01/09 04:37:33;;;;;;;2.77;1.93;;;2.80;99.90;;;;;;5075957;28;20847;-86
2022/01/09 04:39:59;;;;;;;1.93;1.83;;;2.80;99.90;;;;;;5080022;28;20463;-91
2022/01/09 04:42:32;;;;;;;2.70;2.10;;;2.80;99.90;;;;;;5082015;28;20422;-93
2022/01/09 04:44:58;;;;;;;3.57;2.43;;;2.80;99.90;;;;;;5080945;28;20165;-94
2022/01/09 04:47:23;;;;;;;4.00;2.30;;;2.70;99.90;;;;;;5080230;28;20764;-89
2022/01/09 04:49:50;;;;;;;2.60;1.50;;;2.70;99.90;;;;;;5077881;28;20180;-90
2022/01/09 04:52:19;;;;;;;4.57;1.87;;;2.60;99.90;;;;;;5077244;28;20169;-94
2022/01/09 04:54:48;;;;;;;2.40;1.50;;;2.60;99.90;;;;;;5089547;28;20419;-88
2022/01/09 04:57:13;;;;;;;3.53;1.90;;;2.60;99.90;;;;;;5093932;28;20858;-84
2022/01/09 04:59:39;;;;;;;2.87;2.07;;;2.60;99.90;;;;;;5088009;28;20415;-89
2022/01/09 05:02:07;;;;;;;4.10;2.70;;;2.50;99.90;;;;;;5085950;28;20177;-85
2022/01/09 05:04:33;;;;;;;2.53;1.50;;;2.50;99.90;;;;;;5085235;28;20184;-86
2022/01/09 05:06:58;;;;;;;3.90;1.60;;;2.40;99.90;;;;;;5076938;28;20427;-83
2022/01/09 05:09:24;;;;;;;5.03;2.47;;;2.40;99.90;;;;;;5076574;28;20597;-93
2022/01/09 05:11:49;;;;;;;3.00;1.90;;;2.30;99.90;;;;;;5077388;28;20256;-92
2022/01/09 05:14:15;;;;;;;6.13;2.00;;;2.30;99.90;;;;;;5076998;28;20189;-90
2022/01/09 05:16:44;;;;;;;3.73;1.50;;;2.20;99.90;;;;;;5076591;28;20227;-90
2022/01/09 05:19:17;;;;;;;2.33;1.60;;;2.10;99.90;;;;;;5077015;28;20172;-92
2022/01/09 05:21:43;;;;;;;2.37;1.67;;;2.10;99.90;;;;;;5076158;28;20465;-91
2022/01/09 05:24:09;;;;;;;6.60;3.13;;;2.10;99.90;;;;;;5076492;28;20407;-91
2022/01/09 05:26:34;;;;;;;5.23;2.40;;;2.00;99.90;;;;;;5077295;28;20422;-92
2022/01/09 05:29:00;;;;;;;3.13;2.30;;;2.00;99.90;;;;;;5075846;28;20169;-90
2022/01/09 05:31:26;;;;;;;2.40;2.20;;;1.90;99.90;;;;;;5075282;28;20168;-91
2022/01/09 05:33:51;;;;;;;3.30;1.80;;;1.90;99.90;;;;;;5074070;28;20426;-85
2022/01/09 05:36:17;;;;;;;3.70;2.60;;;1.80;99.90;;;;;;5075395;28;20169;-90
2022/01/09 05:38:42;;;;;;;2.60;1.50;;;1.80;99.90;;;;;;5075347;28;20280;-84
2022/01/09 05:41:08;;;;;;;2.73;2.53;;;1.70;99.90;;;;;;5073528;28;20215;-86
2022/01/09 05:43:34;;;;;;;4.63;2.70;;;1.70;99.90;;;;;;5075172;28;20173;-87
2022/01/09 05:45:59;;;;;;;3.37;1.80;;;1.70;99.90;;;;;;5074877;28;20339;-88
2022/01/09 05:48:25;;;;;;;5.73;3.30;;;1.70;99.90;;;;;;5074764;28;20164;-88
2022/01/09 05:50:50;;;;;;;4.20;2.63;;;1.60;99.90;;;;;;5074901;28;20645;-86
2022/01/09 05:53:16;;;;;;;3.43;2.33;;;1.60;99.90;;;;;;5075195;28;20215;-89
2022/01/09 05:55:41;;;;;;;5.03;1.80;;;1.50;99.90;;;;;;5074890;28;20177;-85
2022/01/09 05:58:07;;;;;;;5.77;3.10;;;1.50;99.90;;;;;;5074846;28;20694;-85
2022/01/09 06:00:32;;;;;;;3.10;2.13;;;1.50;99.90;;;;;;5074580;28;20558;-85
2022/01/09 06:02:58;;;;;;;7.00;3.13;;;1.50;99.90;;;;;;5074483;28;20181;-84
2022/01/09 06:05:24;;;;;;;6.83;3.20;;;1.50;99.90;;;;;;5073325;28;20172;-84
2022/01/09 06:07:52;;;;;;;3.00;2.67;;;1.50;99.90;;;;;;5074300;28;20176;-84
2022/01/09 06:10:18;;;;;;;3.53;2.73;;;1.50;99.90;;;;;;5074178;28;20168;-87
2022/01/09 06:12:43;;;;;;;6.73;2.70;;;1.50;99.90;;;;;;5074456;28;20411;-89
2022/01/09 06:15:09;;;;;;;6.57;3.03;;;1.50;99.90;;;;;;5074159;28;20244;-84
2022/01/09 06:17:40;;;;;;;3.60;3.10;;;1.50;99.90;;;;;;5074231;28;20165;-84
2022/01/09 06:20:07;;;;;;;4.87;3.10;;;1.50;99.90;;;;;;5072845;28;20539;-86
2022/01/09 06:22:33;;;;;;;4.10;3.70;;;1.50;99.90;;;;;;5074140;28;20837;-89
2022/01/09 06:24:58;;;;;;;7.47;5.10;;;1.50;99.90;;;;;;5073798;28;20417;-88
2022/01/09 06:27:24;;;;;;;4.17;3.23;;;1.60;99.90;;;;;;5073857;28;20184;-89
2022/01/09 06:29:52;;;;;;;4.20;3.47;;;1.60;99.90;;;;;;5074207;28;20180;-83
2022/01/09 06:32:18;;;;;;;5.77;3.93;;;1.60;99.90;;;;;;5074009;28;20168;-86
2022/01/09 06:34:43;;;;;;;4.73;3.73;;;1.50;99.90;;;;;;5072886;28;20483;-83
2022/01/09 06:37:12;;;;;;;5.73;3.80;;;1.60;99.90;;;;;;5072458;28;20787;-84
2022/01/09 06:39:40;;;;;;;4.70;3.50;;;1.50;99.90;;;;;;5073411;28;20181;-87
2022/01/09 06:42:09;;;;;;;6.40;3.40;;;1.50;99.90;;;;;;5073891;28;20422;-84
2022/01/09 06:44:35;;;;;;;4.77;3.20;;;1.50;99.90;;;;;;5072696;28;20419;-89
2022/01/09 06:47:01;;;;;;;4.47;2.63;;;1.50;99.90;;;;;;5073678;28;20423;-85
2022/01/09 06:49:27;;;;;;;6.73;4.33;;;1.60;99.90;;;;;;5073638;28;20417;-85
2022/01/09 06:51:52;;;;;;;5.90;4.13;;;1.60;99.90;;;;;;5073645;28;20190;-86
2022/01/09 06:54:18;;;;;;;7.13;4.90;;;1.60;99.90;;;;;;5073378;28;20179;-86
2022/01/09 06:56:46;;;;;;;6.93;4.80;;;1.60;99.90;;;;;;5073486;28;20169;-87
2022/01/09 06:59:12;;;;;;;6.97;4.10;;;1.60;99.90;;;;;;5073422;28;20248;-83
2022/01/09 07:01:37;;;;;;;5.63;4.10;;;1.60;99.90;;;;;;5072673;28;20589;-88
2022/01/09 07:04:03;;;;;;;5.83;3.33;;;1.60;99.90;;;;;;5073696;28;20168;-90
2022/01/09 07:06:28;;;;;;;5.10;3.50;;;1.60;99.90;;;;;;5073697;28;20625;-89
2022/01/09 07:08:54;;;;;;;6.43;5.03;;;1.60;99.90;;;;;;5073525;28;20248;-87
2022/01/09 07:11:20;;;;;;;5.80;3.63;;;1.60;99.90;;;;;;5073623;28;20181;-86
2022/01/09 07:13:46;;;;;;;6.50;5.07;;;1.70;99.90;;;;;;5073859;28;20436;-87
2022/01/09 07:16:11;;;;;;;4.77;4.27;;;1.70;99.90;;;;;;5072680;28;20183;-87
2022/01/09 07:18:37;;;;;;;8.00;5.33;;;1.60;99.90;;;;;;5073600;28;20179;-89
2022/01/09 07:21:03;;;;;;;8.03;4.90;;;1.70;99.90;;;;;;5073439;28;20240;-89
2022/01/09 07:23:29;;;;;;;7.80;5.20;;;1.70;99.90;;;;;;5073543;28;20240;-87
2022/01/09 07:25:55;;;;;;;9.00;5.57;;;1.70;99.90;;;;;;5073198;28;20414;-88
2022/01/09 07:28:21;;;;;;;6.60;4.90;;;1.70;99.90;;;;;;5073564;28;20883;-89
2022/01/09 07:30:46;;;;;;;8.87;5.80;;;1.70;99.90;;;;;;5073738;28;20537;-86
2022/01/09 07:33:12;;;;;;;7.90;4.40;;;1.70;99.90;;;;;;5073799;28;20168;-85
2022/01/09 07:35:37;;;;;;;10.60;5.33;;;1.70;99.90;;;;;;5073639;28;20169;-84
2022/01/09 07:38:03;;;;;;;7.63;5.30;;;1.70;99.90;;;;;;5073233;28;20173;-89
2022/01/09 07:40:28;;;;;;;8.10;4.90;;;1.70;99.90;;;;;;5072872;28;20212;-89
2022/01/09 07:42:54;;;;;;;6.03;4.20;;;1.70;99.90;;;;;;5073373;28;20202;-84
2022/01/09 07:45:25;;;;;;;7.97;5.33;;;1.70;99.90;;;;;;5073440;28;20260;-86
2022/01/09 07:47:52;;;;;;;7.07;5.17;;;1.70;99.90;;;;;;5073186;28;20465;-85
2022/01/09 07:50:18;;;;;;;6.70;5.70;;;1.80;99.90;;;;;;5072040;28;20787;-88
2022/01/09 07:52:44;;;;;;;8.00;5.73;;;1.70;99.90;;;;;;5071902;28;20541;-88
2022/01/09 07:55:11;;;;;;;7.33;4.77;;;1.70;99.90;;;;;;5072653;28;20251;-89
2022/01/09 07:57:37;;;;;;;8.00;5.07;;;1.80;99.90;;;;;;5073076;28;20464;-85
2022/01/09 08:00:10;;;;;;;8.70;5.53;;;1.80;99.90;;;;;;5073028;28;20486;-88
2022/01/09 08:02:35;;;;;;;6.67;4.77;;;1.80;99.90;;;;;;5071760;28;20419;-90
2022/01/09 08:05:01;;;;;;;6.93;5.60;;;1.80;99.90;;;;;;5073243;28;20464;-86
2022/01/09 08:07:27;;;;;;;9.77;6.20;;;1.80;99.90;;;;;;5073127;28;20173;-86
2022/01/09 08:09:53;;;;;;;6.77;5.27;;;1.80;99.90;;;;;;5072975;28;20827;-86
2022/01/09 08:12:18;;;;;;;6.47;5.37;;;1.80;99.90;;;;;;5073407;28;20176;-85
2022/01/09 08:14:45;;;;;;;11.03;7.20;;;1.80;99.90;;;;;;5076435;28;20561;-86
2022/01/09 08:17:12;;;;;;;8.50;6.90;;;1.80;99.90;;;;;;5076583;28;20187;-88
2022/01/09 08:19:37;;;;;;;8.37;7.00;;;1.80;99.90;;;;;;5076481;28;20414;-86
2022/01/09 08:22:05;;;;;;;8.37;5.67;;;1.80;99.90;;;;;;5076686;28;20458;-85
2022/01/09 08:24:31;;;;;;;8.00;6.33;;;1.90;99.90;;;;;;5076644;28;20170;-88
2022/01/09 08:26:56;;;;;;;9.30;6.37;;;1.90;99.90;;;;;;5076253;28;20453;-88
2022/01/09 08:29:22;;;;;;;8.60;7.23;;;1.90;99.90;;;;;;5076295;28;20419;-88
2022/01/09 08:31:48;;;;;;;11.37;6.97;;;1.90;99.90;;;;;;5076178;28;20207;-89
2022/01/09 08:34:13;;;;;;;7.87;6.80;;;1.90;99.90;;;;;;5076032;28;20264;-84
2022/01/09 08:36:39;;;;;;;8.90;6.60;;;2.00;99.90;;;;;;5075534;28;20451;-87
2022/01/09 08:39:05;;;;;;;10.80;7.13;;;2.00;99.90;;;;;;5079881;28;20663;-84
2022/01/09 08:41:32;;;;;;;12.00;7.80;;;2.00;99.90;;;;;;5075379;28;20205;-84
2022/01/09 08:44:04;;;;;;;8.67;7.23;;;2.00;99.90;;;;;;5075080;28;20415;-89
2022/01/09 08:46:33;;;;;;;8.27;5.90;;;2.00;99.90;;;;;;5074308;28;20464;-87
2022/01/09 08:49:00;;;;;;;9.97;6.77;;;2.00;99.90;;;;;;5075787;28;20411;-84
2022/01/09 08:51:26;;;;;;;12.00;7.03;;;2.00;99.90;;;;;;5074459;28;20422;-88
2022/01/09 08:53:51;;;;;;;7.00;5.50;;;2.00;99.90;;;;;;5075079;28;20420;-83
2022/01/09 08:56:18;;;;;;;8.60;6.33;;;2.00;99.90;;;;;;5075626;28;20420;-86
2022/01/09 08:58:44;;;;;;;12.70;8.33;;;2.00;99.90;;;;;;5075539;28;20185;-88
2022/01/09 09:01:11;;;;;;;6.53;5.30;;;2.10;99.90;;;;;;5075229;28;20548;-90
2022/01/09 09:03:40;;;;;;;9.03;5.50;;;2.00;99.90;;;;;;5074407;28;20184;-86
2022/01/09 09:06:07;;;;;;;8.20;6.10;;;2.10;99.90;;;;;;5074745;28;20423;-88
2022/01/09 09:08:33;;;;;;;11.90;6.90;;;2.10;99.90;;;;;;5075495;28;20426;-85
2022/01/09 09:10:58;;;;;;;9.50;6.90;;;2.10;99.90;;;;;;5075679;28;20419;-84
2022/01/09 09:13:24;;;;;;;10.57;6.90;;;2.10;99.90;;;;;;5074447;28;20750;-88
2022/01/09 09:15:49;;;;;;;8.33;5.87;;;2.20;99.90;;;;;;5075213;28;20212;-84
2022/01/09 09:18:15;;;;;;;8.90;5.70;;;2.30;99.90;;;;;;5075089;28;20222;-87
2022/01/09 09:20:40;;;;;;;11.60;6.23;;;2.30;99.90;;;;;;5074866;28;20201;-89
2022/01/09 09:23:05;;;;;;;8.03;5.20;;;2.20;99.90;;;;;;5074364;28;20239;-88
2022/01/09 09:25:31;;;;;;;7.80;6.20;;;2.20;99.90;;;;;;5073161;28;20203;-88
2022/01/09 09:27:56;;;;;;;10.17;6.57;;;2.20;99.90;;;;;;5073273;28;20176;-90
2022/01/09 09:30:22;;;;;;;9.07;6.83;;;2.30;99.90;;;;;;5074143;28;20181;-90
2022/01/09 09:32:51;;;;;;;8.63;6.60;;;2.30;99.90;;;;;;5074009;28;20173;-85
2022/01/09 09:35:16;;;;;;;11.57;6.40;;;2.30;99.90;;;;;;5074901;28;20581;-87
2022/01/09 09:37:42;;;;;;;8.87;5.60;;;2.40;99.90;;;;;;5073470;28;20438;-88
2022/01/09 09:40:08;;;;;;;8.43;5.97;;;2.30;99.90;;;;;;5073693;28;20207;-89
2022/01/09 09:42:34;;;;;;;8.17;5.40;;;2.20;99.90;;;;;;5072740;28;20180;-87
2022/01/09 09:45:02;;;;;;;5.63;4.93;;;2.30;99.90;;;;;;5074609;28;20411;-85
2022/01/09 09:47:28;;;;;;;8.03;6.17;;;2.30;99.90;;;;;;5074977;28;20169;-85
2022/01/09 09:49:54;;;;;;;10.43;6.83;;;2.30;99.90;;;;;;5074509;28;20422;-84
2022/01/09 09:52:20;;;;;;;9.33;6.90;;;2.30;99.90;;;;;;5071986;28;20758;-85
2022/01/09 09:54:47;;;;;;;5.10;3.37;;;2.40;99.90;;;;;;5072975;28;20294;-87
2022/01/09 09:57:13;;;;;;;7.90;5.87;;;2.30;99.90;;;;;;5073775;28;20256;-85
2022/01/09 09:59:42;;;;;;;7.10;5.20;;;2.30;99.90;;;;;;5073634;28;20498;-83
2022/01/09 10:02:12;;;;;;;6.67;4.13;;;2.20;99.90;;;;;;5071986;28;20178;-84
2022/01/09 10:04:59;;;;;;;8.20;5.90;;;2.30;99.90;;;;;;5073382;28;20420;-85
2022/01/09 10:07:26;;;;;;;7.53;4.70;;;2.40;99.90;;;;;;5072448;28;20407;-87
2022/01/09 10:09:57;;;;;;;7.23;4.90;;;2.30;99.90;;;;;;5071444;28;20422;-85
2022/01/09 10:12:25;;;;;;;9.03;5.30;;;2.30;99.90;;;;;;5072679;28;20400;-84
2022/01/09 10:15:04;;;;;;;8.00;5.57;;;2.30;99.90;;;;;;5073376;28;20876;-84
2022/01/09 10:17:31;;;;;;;5.40;4.83;;;2.40;99.90;;;;;;5072174;28;20457;-86
2022/01/09 10:20:03;;;;;;;6.00;4.47;;;2.40;99.90;;;;;;5073289;28;20512;-83
2022/01/09 10:22:47;;;;;;;5.47;4.40;;;2.30;99.90;;;;;;5070729;28;20471;-86
2022/01/09 10:25:26;;;;;;;7.53;5.50;;;2.40;99.90;;;;;;5072832;28;20464;-84
2022/01/09 10:28:05;;;;;;;7.10;4.30;;;2.50;99.90;;;;;;5072174;28;20506;-84
2022/01/09 10:30:43;;;;;;;5.23;3.73;;;2.40;99.90;;;;;;5073472;28;20403;-84
2022/01/09 10:33:12;;;;;;;6.63;4.90;;;2.40;99.90;;;;;;5073236;28;20418;-85
2022/01/09 10:35:39;;;;;;;6.53;4.90;;;2.40;99.90;;;;;;5072808;28;20625;-83
2022/01/09 10:38:22;;;;;;;6.17;4.33;;;2.50;99.90;;;;;;5082812;28;20454;-85
2022/01/09 10:40:52;;;;;;;6.70;4.67;;;2.60;99.90;;;;;;5093423;28;20465;-83
2022/01/09 10:43:22;;;;;;;8.43;5.13;;;2.60;99.90;;;;;;5092198;28;20911;-86
2022/01/09 10:45:59;;;;;;;6.93;4.70;;;2.50;99.90;;;;;;5093354;28;20463;-84
2022/01/09 10:48:27;;;;;;;5.87;4.10;;;2.60;99.90;;;;;;5093401;28;20463;-84
2022/01/09 10:50:53;;;;;;;6.20;4.10;;;2.60;99.90;;;;;;5108941;28;20413;-84
2022/01/09 10:53:26;;;;;;;9.30;4.77;;;2.60;99.90;;;;;;5092898;28;20431;-86
2022/01/09 10:56:04;;;;;;;4.57;3.60;;;2.70;99.90;;;;;;5091757;28;20438;-84
2022/01/09 10:58:30;;;;;;;6.30;4.30;;;2.70;99.90;;;;;;5093140;28;20414;-85
2022/01/09 11:01:07;;;;;;;5.17;3.60;;;2.70;99.90;;;;;;5108687;28;20477;-83
2022/01/09 11:03:40;;;;;;;8.17;4.17;;;2.70;99.90;;;;;;5093915;28;20438;-83
2022/01/09 11:06:07;;;;;;;7.00;5.03;;;2.70;99.90;;;;;;5093362;28;20458;-86
2022/01/09 11:08:36;;;;;;;8.67;3.60;;;2.80;99.90;;;;;;5080287;28;20469;-83
2022/01/09 11:11:03;;;;;;;6.43;4.10;;;2.70;99.90;;;;;;5074183;28;20459;-84
2022/01/09 11:13:29;;;;;;;7.57;5.00;;;2.70;99.90;;;;;;5084664;28;20407;-84
2022/01/09 11:18:45;;;;;;;9.53;4.67;;;2.90;99.90;;;;;;5075562;28;20472;-83
2022/01/09 11:21:11;;;;;;;7.43;5.07;;;2.80;99.90;;;;;;5074570;28;20513;-84
2022/01/09 11:24:04;;;;;;;4.87;3.83;;;2.80;99.90;;;;;;5072918;28;20462;-81
2022/01/09 11:26:47;;;;;;;5.70;4.03;;;2.80;99.90;;;;;;5072937;28;20419;-85
2022/01/09 11:29:15;;;;;;;5.87;4.23;;;2.80;99.90;;;;;;5073093;28;20435;-86
2022/01/09 11:31:54;;;;;;;5.80;4.23;;;2.80;99.90;;;;;;5073109;28;20416;-84
2022/01/09 11:34:38;;;;;;;6.67;4.80;;;2.80;99.90;;;;;;5072856;28;20830;-84
2022/01/09 11:37:44;;;;;;;5.33;4.47;;;2.90;99.90;;;;;;5072787;28;20459;-85
2022/01/09 11:40:30;;;;;;;5.20;3.70;;;2.90;99.90;;;;;;5064237;28;20478;-86
2022/01/09 11:43:01;;;;;;;4.60;3.77;;;2.90;99.90;;;;;;5073228;28;20419;-85
2022/01/09 11:45:48;;;;;;;5.37;3.60;;;2.90;99.90;;;;;;5071239;28;20443;-86
2022/01/09 11:48:42;;;;;;;7.87;4.83;;;3.00;99.90;;;;;;5074826;28;20492;-87
2022/01/09 11:51:09;;;;;;;4.80;4.27;;;3.00;99.90;;;;;;5075414;28;20420;-86
2022/01/09 11:53:57;;;;;;;5.60;2.90;;;3.00;99.90;;;;;;5076212;28;20399;-86
2022/01/09 11:56:41;;;;;;;5.47;4.40;;;4.10;99.90;;;;;;5076402;28;20409;-85
2022/01/09 11:59:27;;;;;;;6.23;4.10;;;3.50;99.90;;;;;;5076366;28;20411;-86
2022/01/09 12:02:03;;;;;;;5.90;3.40;;;3.20;99.90;;;;;;5076379;28;21075;-86
2022/01/09 12:04:31;;;;;;;3.30;2.43;;;3.20;99.90;;;;;;5075263;28;20415;-84
2022/01/09 12:06:58;;;;;;;4.50;2.77;;;3.10;99.90;;;;;;5076616;28;20407;-88
2022/01/09 12:09:34;;;;;;;5.63;3.30;;;3.20;99.90;;;;;;5074727;28;20470;-86
2022/01/09 12:12:02;;;;;;;5.27;3.50;;;3.30;99.90;;;;;;5076849;28;20435;-87
2022/01/09 12:15:03;;;;;;;6.90;3.07;;;3.20;99.90;;;;;;5075472;28;20483;-87
2022/01/09 12:17:38;;;;;;;3.47;3.00;;;3.20;99.90;;;;;;5077274;28;20775;-85
2022/01/09 12:20:10;;;;;;;5.10;2.93;;;3.20;99.90;;;;;;5076084;28;20487;-87
2022/01/09 12:22:49;;;;;;;6.30;3.87;;;3.20;99.90;;;;;;5076213;28;20521;-85
2022/01/09 12:25:26;;;;;;;5.17;2.90;;;3.20;99.90;;;;;;5075976;28;20453;-86
2022/01/09 12:27:56;;;;;;;4.00;3.30;;;3.30;99.90;;;;;;5076668;28;20412;-88
2022/01/09 12:30:34;;;;;;;7.60;3.50;;;3.30;99.90;;;;;;5076498;28;20763;-86
2022/01/09 12:33:05;;;;;;;5.53;3.00;;;3.30;99.90;;;;;;5079216;28;20407;-86
2022/01/09 12:35:31;;;;;;;7.60;5.13;;;3.40;99.90;;;;;;5085652;28;20440;-85
2022/01/09 12:37:58;;;;;;;5.07;3.83;;;3.40;99.90;;;;;;5094120;28;20419;-85
2022/01/09 12:40:26;;;;;;;5.07;2.80;;;3.50;99.90;;;;;;5095303;28;20459;-86
2022/01/09 12:42:53;;;;;;;4.07;2.90;;;3.50;99.90;;;;;;5091241;28;20419;-84
2022/01/09 12:45:25;;;;;;;3.80;2.80;;;3.50;99.90;;;;;;5092737;28;20417;-85
2022/01/09 12:47:56;;;;;;;4.90;2.77;;;3.60;99.90;;;;;;5091676;28;20420;-85
2022/01/09 12:50:28;;;;;;;9.00;2.50;;;3.60;99.90;;;;;;5080472;28;20415;-86
2022/01/09 12:53:16;;;;;;;3.20;2.23;;;3.70;99.90;;;;;;5093731;28;20427;-83
2022/01/09 12:56:00;;;;;;;4.57;3.37;;;3.70;99.90;;;;;;5094432;28;20402;-85
2022/01/09 12:58:35;;;;;;;5.43;3.63;;;3.70;99.90;;;;;;5094858;28;20417;-85
2022/01/09 13:01:19;;;;;;;5.37;3.63;;;3.70;99.90;;;;;;5095116;28;20455;-85
2022/01/09 13:03:50;;;;;;;7.10;4.07;;;3.90;99.90;;;;;;5094766;28;20482;-86
2022/01/09 13:06:27;;;;;;;6.03;2.87;;;3.90;99.90;;;;;;5093486;28;20426;-85